Ellipsis — WDE4581 — position and weather

sailwx.info

Track history (hours):
 
Tides and Currents Weather Stations Pressure Air Temp Water Temp Dewpoint Dewpoint Depression Visibility Wind Speed Wind Dir Waves Ship Positions

Ellipsis

More information available from US FCC via Universal Licensing System and Coast Guard Vessel Documentation Center.

Last reported at 2014-Jul-21 20:21 UTC. Time now 2014-Jul-24 17:01 UTC.
Position N 48°36' W 124°47'.

Length 19 m.

Type: Pleasure craft. MMSI: 367355160.

Date/timePositionNaut miles runAvg speedWind from/ knotsBaromVisibWave heightAir tempDewpointWater temp
2014-Jul-21 20:21N 48°36' W 124°47'1 8.2
2014-Jul-21 20:13N 48°35' W 124°46'5 7.8
2014-Jul-21 19:33N 48°33' W 124°38'8 7.3
2014-Jul-21 18:28N 48°30' W 124°27'6 7.1
2014-Jul-21 17:33N 48°27' W 124°18'7 7.3
2014-Jul-21 16:33N 48°24' W 124°09'31 1.4
2014-Jul-20 18:27N 48°25' W 123°23'3 3.8
2014-Jul-20 17:33N 48°23' W 123°19'42 2.1
2014-Jul-19 21:20N 47°55' W 122°32'7 8.6
2014-Jul-19 20:33N 47°49' W 122°28'2 8.4
2014-Jul-19 20:16N 47°47' W 122°28'4 0.2
2014-Jul-18 20:12N 47°43' W 122°31'1 8.4
2014-Jul-18 20:03N 47°43' W 122°29'4 3.6
2014-Jul-18 19:04N 47°41' W 122°24'0 0.0
2014-Jul-18 18:19N 47°41' W 122°24'0 0.0
2014-Jul-18 17:31N 47°41' W 122°24'0 0.1
2014-Jul-18 17:27N 47°41' W 122°24'0 0.0
2014-Jul-18 16:28N 47°41' W 122°24'0 0.0
2014-Jul-18 16:27N 47°41' W 122°24'0 0.0
2014-Jul-18 15:33N 47°41' W 122°24'0 0.0
2014-Jul-18 15:32N 47°41' W 122°24'  
Track history (hours):
 
Tides and Currents Weather Stations Pressure Air Temp Water Temp Dewpoint Dewpoint Depression Visibility Wind Speed Wind Dir Waves Ship Positions

Ellipsis

More information available from US FCC via Universal Licensing System and Coast Guard Vessel Documentation Center.

Last reported at 2014-Jul-21 20:21 UTC. Time now 2014-Jul-24 17:01 UTC.
Position N 48°36' W 124°47'.

Length 19 m.

Type: Pleasure craft. MMSI: 367355160.

Date/timePositionNaut miles runAvg speedWind from/ knotsBaromVisibWave heightAir tempDewpointWater temp
2014-Jul-21 20:21N 48°36' W 124°47'1 8.2
2014-Jul-21 20:13N 48°35' W 124°46'5 7.8
2014-Jul-21 19:33N 48°33' W 124°38'8 7.3
2014-Jul-21 18:28N 48°30' W 124°27'6 7.1
2014-Jul-21 17:33N 48°27' W 124°18'7 7.3
2014-Jul-21 16:33N 48°24' W 124°09'31 1.4
2014-Jul-20 18:27N 48°25' W 123°23'3 3.8
2014-Jul-20 17:33N 48°23' W 123°19'42 2.1
2014-Jul-19 21:20N 47°55' W 122°32'7 8.6
2014-Jul-19 20:33N 47°49' W 122°28'2 8.4
2014-Jul-19 20:16N 47°47' W 122°28'4 0.2
2014-Jul-18 20:12N 47°43' W 122°31'1 8.4
2014-Jul-18 20:03N 47°43' W 122°29'4 3.6
2014-Jul-18 19:04N 47°41' W 122°24'0 0.0
2014-Jul-18 18:19N 47°41' W 122°24'0 0.0
2014-Jul-18 17:31N 47°41' W 122°24'0 0.1
2014-Jul-18 17:27N 47°41' W 122°24'0 0.0
2014-Jul-18 16:28N 47°41' W 122°24'0 0.0
2014-Jul-18 16:27N 47°41' W 122°24'0 0.0
2014-Jul-18 15:33N 47°41' W 122°24'0 0.0
2014-Jul-18 15:32N 47°41' W 122°24'  

Dump ship's entire track history